createdAt,value
2019-02-21T00:02:18.999Z,23.30
2019-02-21T00:04:47.274Z,26.77
2019-02-21T00:07:15.561Z,25.70
2019-02-21T00:09:43.873Z,18.93
2019-02-21T00:12:12.199Z,20.00
2019-02-21T00:14:40.537Z,21.83
2019-02-21T00:17:08.799Z,20.30
2019-02-21T00:19:37.080Z,20.77
2019-02-21T00:22:05.351Z,21.83
2019-02-21T00:24:33.641Z,21.10
2019-02-21T00:27:01.896Z,20.07
2019-02-21T00:29:30.189Z,23.77
2019-02-21T00:31:58.453Z,21.53
2019-02-21T00:34:26.717Z,24.60
2019-02-21T00:36:55.007Z,23.20
2019-02-21T00:39:23.271Z,23.20
2019-02-21T00:41:51.578Z,27.17
2019-02-21T00:44:19.848Z,25.03
2019-02-21T00:46:48.122Z,19.80
2019-02-21T00:49:16.393Z,23.07
2019-02-21T00:51:44.696Z,21.40
2019-02-21T00:54:12.968Z,25.50
2019-02-21T00:56:41.246Z,24.33
2019-02-21T00:59:10.139Z,21.55
2019-02-21T01:01:38.404Z,21.60
2019-02-21T01:04:06.750Z,24.07
2019-02-21T01:06:35.112Z,22.67
2019-02-21T01:09:04.711Z,21.30
2019-02-21T01:11:32.994Z,21.23
2019-02-21T01:14:01.261Z,20.25
2019-02-21T01:16:29.560Z,20.00
2019-02-21T01:18:57.826Z,22.67
2019-02-21T01:21:26.102Z,20.27
2019-02-21T01:23:54.391Z,21.02
2019-02-21T01:26:22.651Z,22.37
2019-02-21T01:28:51.001Z,23.43
2019-02-21T01:31:19.282Z,26.07
2019-02-21T01:33:47.554Z,21.07
2019-02-21T01:36:15.830Z,26.62
2019-02-21T01:38:44.111Z,25.55
2019-02-21T01:41:12.370Z,21.23
2019-02-21T01:43:41.188Z,22.30
2019-02-21T01:46:09.480Z,20.73
2019-02-21T01:48:37.770Z,20.37
2019-02-21T01:51:06.037Z,20.70
2019-02-21T01:53:34.318Z,25.17
2019-02-21T01:56:02.595Z,23.60
2019-02-21T01:58:30.840Z,27.57
2019-02-21T02:01:08.000Z,23.27
2019-02-21T02:03:29.168Z,25.17
2019-02-21T02:05:57.440Z,22.93
2019-02-21T02:08:25.775Z,27.27
2019-02-21T02:10:54.064Z,24.30
2019-02-21T02:13:24.914Z,27.77
2019-02-21T02:15:52.316Z,27.97
2019-02-21T02:18:20.573Z,25.30
2019-02-21T02:20:48.828Z,23.30
2019-02-21T02:23:17.116Z,21.93
2019-02-21T02:25:45.381Z,25.10
2019-02-21T02:28:13.651Z,25.80
2019-02-21T02:30:41.935Z,23.22
2019-02-21T02:33:10.214Z,24.70
2019-02-21T02:35:38.495Z,26.00
2019-02-21T02:38:06.758Z,25.70
2019-02-21T02:40:35.030Z,23.60
2019-02-21T02:43:03.293Z,33.17
2019-02-21T02:45:31.604Z,22.70
2019-02-21T02:47:59.877Z,24.35
2019-02-21T02:50:28.147Z,24.63
2019-02-21T02:52:56.419Z,24.52
2019-02-21T02:55:24.702Z,28.30
2019-02-21T03:04:54.657Z,24.35
2019-02-21T03:07:22.983Z,22.73
2019-02-21T03:09:51.224Z,25.27
2019-02-21T03:12:19.496Z,24.65
2019-02-21T03:14:47.769Z,26.70
2019-02-21T03:24:27.009Z,25.87
2019-02-21T03:26:55.278Z,24.50
2019-02-21T03:29:23.551Z,26.52
2019-02-21T03:31:55.061Z,26.12
2019-02-21T03:34:21.809Z,28.80
2019-02-21T03:36:50.099Z,28.20
2019-02-21T03:39:18.358Z,33.78
2019-02-21T03:41:46.622Z,29.87
2019-02-21T03:44:14.871Z,30.97
2019-02-21T03:46:43.141Z,26.23
2019-02-21T03:49:11.422Z,25.07
2019-02-21T03:51:39.709Z,28.90
2019-02-21T03:54:08.255Z,29.60
2019-02-21T03:56:36.526Z,25.07
2019-02-21T03:59:04.803Z,26.50
2019-02-21T04:01:33.077Z,28.57
2019-02-21T04:04:01.344Z,30.73
2019-02-21T04:06:29.638Z,27.70
2019-02-21T04:40:29.290Z,31.35
2019-02-21T04:42:57.630Z,26.37
2019-02-21T04:45:25.910Z,27.45
2019-02-21T04:47:54.178Z,25.97
2019-02-21T04:50:22.433Z,32.33
2019-02-21T04:52:50.731Z,30.33
2019-02-21T04:55:19.146Z,26.20
2019-02-21T04:57:47.407Z,25.77
2019-02-21T05:00:15.786Z,25.95
2019-02-21T05:02:44.054Z,28.40
2019-02-21T05:05:12.352Z,27.80
2019-02-21T05:07:40.659Z,27.73
2019-02-21T05:10:09.094Z,30.17
2019-02-21T05:12:37.340Z,30.40
2019-02-21T05:15:06.115Z,29.20
2019-02-21T05:17:34.402Z,33.00
2019-02-21T05:20:02.699Z,29.27
2019-02-21T05:22:30.964Z,27.67
2019-02-21T05:24:59.252Z,27.83
2019-02-21T05:27:29.171Z,27.20
2019-02-21T05:29:57.442Z,27.25
2019-02-21T05:32:27.349Z,28.47
2019-02-21T05:34:57.271Z,33.00
2019-02-21T05:37:42.283Z,31.40
2019-02-21T05:40:14.689Z,28.00
2019-02-21T05:42:59.314Z,28.75
2019-02-21T05:45:38.268Z,29.27
2019-02-21T05:48:14.225Z,28.23
2019-02-21T05:50:44.145Z,29.05
2019-02-21T05:53:14.056Z,27.17
2019-02-21T05:55:49.723Z,29.43
2019-02-21T05:58:31.492Z,28.37
2019-02-21T06:01:10.325Z,29.87
2019-02-21T06:03:52.266Z,28.00
2019-02-21T06:06:23.165Z,29.90
2019-02-21T06:08:55.818Z,31.15
2019-02-21T06:11:28.153Z,28.35
2019-02-21T06:14:00.775Z,28.70
2019-02-21T06:16:33.255Z,30.50
2019-02-21T06:19:05.776Z,29.63
2019-02-21T06:21:35.689Z,26.63
2019-02-21T06:24:05.600Z,28.07
2019-02-21T06:26:39.564Z,30.07
2019-02-21T06:29:09.950Z,27.37
2019-02-21T06:31:38.287Z,29.30
2019-02-21T06:34:06.554Z,30.20
2019-02-21T06:36:34.826Z,27.85
2019-02-21T06:39:04.468Z,29.00
2019-02-21T06:41:32.722Z,29.57
2019-02-21T06:44:00.997Z,29.55
2019-02-21T06:46:29.288Z,28.57
2019-02-21T06:48:57.553Z,28.75
2019-02-21T06:51:25.827Z,27.43
2019-02-21T06:53:54.254Z,29.03
2019-02-21T06:56:22.533Z,29.70
2019-02-21T06:58:50.818Z,31.10
2019-02-21T07:01:28.890Z,29.87
2019-02-21T07:03:49.087Z,27.90
2019-02-21T07:06:19.114Z,30.85
2019-02-21T07:08:47.494Z,31.90
2019-02-21T07:11:15.771Z,30.17
2019-02-21T07:13:44.614Z,31.60
2019-02-21T07:16:13.279Z,29.15
2019-02-21T07:18:41.554Z,29.03
2019-02-21T07:21:13.348Z,32.33
2019-02-21T07:23:43.755Z,26.90
2019-02-21T07:26:11.776Z,33.48
2019-02-21T07:28:41.671Z,26.60
2019-02-21T07:31:10.102Z,28.35
2019-02-21T07:33:39.044Z,28.17
2019-02-21T07:36:07.314Z,28.15
2019-02-21T07:38:35.578Z,26.73
2019-02-21T07:41:03.955Z,31.37
2019-02-21T07:43:32.185Z,23.92
2019-02-21T07:46:00.449Z,27.73
2019-02-21T07:48:28.735Z,27.03
2019-02-21T07:50:57.017Z,28.53
2019-02-21T07:53:25.283Z,30.83
2019-02-21T07:55:55.759Z,24.93
2019-02-21T07:58:23.549Z,27.97
2019-02-21T08:00:54.022Z,30.17
2019-02-21T08:03:29.777Z,28.30
2019-02-21T08:05:51.834Z,26.60
2019-02-21T08:08:20.989Z,28.20
2019-02-21T08:10:49.262Z,28.63
2019-02-21T08:13:17.545Z,30.10
2019-02-21T08:15:45.809Z,29.10
2019-02-21T08:18:14.091Z,27.37
2019-02-21T08:20:42.357Z,30.05
2019-02-21T08:23:11.106Z,30.08
2019-02-21T08:25:39.480Z,34.17
2019-02-21T08:28:07.770Z,30.00
2019-02-21T08:30:36.063Z,32.70
2019-02-21T08:33:05.971Z,30.37
2019-02-21T08:35:34.251Z,31.40
2019-02-21T08:38:02.550Z,27.80
2019-02-21T08:40:30.823Z,27.10
2019-02-21T08:42:59.083Z,31.37
2019-02-21T08:45:27.370Z,27.60
2019-02-21T08:47:55.633Z,30.90
2019-02-21T08:50:23.905Z,28.55
2019-02-21T08:52:52.186Z,30.70
2019-02-21T08:55:20.450Z,34.67
2019-02-21T08:57:48.725Z,30.17
2019-02-21T09:00:17.132Z,28.40
2019-02-21T09:02:45.478Z,29.33
2019-02-21T09:05:14.027Z,30.93
2019-02-21T09:07:42.243Z,30.50
2019-02-21T09:10:12.373Z,28.52
2019-02-21T09:12:40.637Z,33.02
2019-02-21T09:15:12.134Z,29.70
2019-02-21T09:17:40.438Z,34.43
2019-02-21T09:20:10.036Z,29.85
2019-02-21T09:22:38.327Z,30.47
2019-02-21T09:25:09.300Z,30.00
2019-02-21T09:27:37.600Z,27.97
2019-02-21T09:30:12.325Z,32.47
2019-02-21T09:32:42.032Z,30.43
2019-02-21T09:35:10.354Z,30.60
2019-02-21T09:37:38.635Z,28.30
2019-02-21T09:40:12.121Z,28.30
2019-02-21T09:42:40.326Z,31.03
2019-02-21T09:45:11.762Z,35.53
2019-02-21T09:47:40.060Z,30.63
2019-02-21T09:50:09.572Z,30.63
2019-02-21T09:52:37.828Z,35.53
2019-02-21T09:55:16.962Z,29.90
2019-02-21T09:57:45.295Z,31.42
2019-02-21T10:00:22.863Z,32.13
2019-02-21T10:02:54.234Z,34.53
2019-02-21T10:05:21.123Z,37.83
2019-02-21T10:07:49.413Z,30.20
2019-02-21T10:10:20.376Z,29.23
2019-02-21T10:12:48.674Z,32.37
2019-02-21T10:15:17.085Z,34.97
2019-02-21T10:17:45.356Z,33.87
2019-02-21T10:20:18.983Z,30.35
2019-02-21T10:22:47.261Z,31.27
2019-02-21T10:25:17.758Z,33.10
2019-02-21T10:27:46.034Z,37.67
2019-02-21T10:30:16.647Z,38.70
2019-02-21T10:32:44.981Z,34.70
2019-02-21T10:35:13.313Z,34.97
2019-02-21T10:37:41.602Z,34.03
2019-02-21T10:40:11.931Z,39.80
2019-02-21T10:42:40.194Z,32.87
2019-02-21T10:45:11.298Z,31.97
2019-02-21T10:47:39.568Z,34.07
2019-02-21T10:50:14.082Z,34.63
2019-02-21T10:52:44.327Z,33.80
2019-02-21T10:55:12.679Z,30.80
2019-02-21T10:57:41.027Z,33.57
2019-02-21T11:00:12.315Z,33.27
2019-02-21T11:02:40.582Z,32.70
2019-02-21T11:05:10.285Z,32.17
2019-02-21T11:07:38.568Z,35.10
2019-02-21T11:10:10.017Z,35.30
2019-02-21T11:12:38.279Z,34.40
2019-02-21T11:15:09.680Z,38.53
2019-02-21T11:17:37.949Z,34.57
2019-02-21T11:20:09.214Z,34.70
2019-02-21T11:22:37.501Z,35.83
2019-02-21T11:25:07.706Z,36.57
2019-02-21T11:27:35.974Z,35.48
2019-02-21T11:30:10.094Z,37.60
2019-02-21T11:32:38.348Z,38.73
2019-02-21T11:35:07.144Z,36.20
2019-02-21T11:37:42.706Z,36.88
2019-02-21T11:40:07.733Z,34.37
2019-02-21T11:42:35.986Z,34.00
2019-02-21T11:45:06.393Z,33.33
2019-02-21T11:47:34.672Z,33.75
2019-02-21T11:50:03.019Z,31.17
2019-02-21T11:52:31.287Z,34.05
2019-02-21T11:54:59.564Z,33.17
2019-02-21T11:57:27.829Z,35.67
2019-02-21T11:59:56.070Z,34.47
2019-02-21T12:02:24.323Z,33.13
2019-02-21T12:04:52.583Z,30.20
2019-02-21T12:07:20.851Z,31.43
2019-02-21T12:09:49.145Z,34.27
2019-02-21T12:12:17.412Z,31.42
2019-02-21T12:14:45.690Z,35.00
2019-02-21T12:17:13.960Z,30.50
2019-02-21T12:19:42.234Z,30.60
2019-02-21T12:22:10.573Z,34.23
2019-02-21T12:24:38.865Z,32.90
2019-02-21T12:27:07.116Z,30.87
2019-02-21T12:29:35.393Z,33.75
2019-02-21T12:32:03.656Z,32.03
2019-02-21T12:34:31.907Z,29.80
2019-02-21T12:37:00.192Z,30.10
2019-02-21T12:39:28.459Z,32.40
2019-02-21T12:41:56.745Z,33.40
2019-02-21T12:44:25.022Z,32.10
2019-02-21T12:46:53.285Z,36.48
2019-02-21T12:49:21.561Z,36.97
2019-02-21T12:51:49.828Z,37.97
2019-02-21T12:54:18.089Z,32.97
2019-02-21T12:56:46.353Z,38.13
2019-02-21T12:59:14.617Z,37.43
2019-02-21T13:01:42.886Z,37.47
2019-02-21T13:04:11.142Z,37.10
2019-02-21T13:06:39.396Z,52.13
2019-02-21T13:09:07.725Z,43.47
2019-02-21T13:11:35.999Z,36.30
2019-02-21T13:14:04.255Z,36.40
2019-02-21T13:16:32.507Z,42.25
2019-02-21T13:19:00.760Z,42.80
2019-02-21T13:21:29.031Z,43.63
2019-02-21T13:23:57.312Z,38.43
2019-02-21T13:26:27.971Z,41.57
2019-02-21T13:28:56.219Z,38.35
2019-02-21T13:31:24.704Z,39.10
2019-02-21T13:33:52.965Z,42.90
2019-02-21T13:36:22.765Z,37.05
2019-02-21T13:38:51.032Z,38.38
2019-02-21T13:41:19.293Z,40.12
2019-02-21T13:43:47.595Z,44.72
2019-02-21T13:46:15.866Z,43.43
2019-02-21T13:48:44.178Z,48.83
2019-02-21T13:51:12.413Z,40.57
2019-02-21T13:53:41.709Z,46.23
2019-02-21T13:56:10.041Z,50.40
2019-02-21T13:58:38.315Z,44.90
2019-02-21T14:01:06.586Z,45.10
2019-02-21T14:03:34.955Z,40.27
2019-02-21T14:06:04.082Z,47.77
2019-02-21T14:08:32.314Z,49.83
2019-02-21T14:11:00.578Z,48.63
2019-02-21T14:13:28.857Z,48.05
2019-02-21T14:15:57.131Z,43.40
2019-02-21T14:18:25.397Z,44.03
2019-02-21T14:20:53.663Z,43.67
2019-02-21T14:23:21.942Z,50.50
2019-02-21T14:25:50.228Z,47.43
2019-02-21T14:28:18.498Z,43.57
2019-02-21T14:30:46.764Z,41.00
2019-02-21T14:33:17.398Z,51.77
2019-02-21T14:35:45.042Z,45.20
2019-02-21T14:38:13.292Z,44.00
2019-02-21T14:40:41.593Z,49.93
2019-02-21T14:43:09.863Z,42.73
2019-02-21T14:45:38.166Z,52.13
2019-02-21T14:48:06.438Z,47.27
2019-02-21T14:50:36.103Z,48.35
2019-02-21T14:53:04.539Z,50.23
2019-02-21T14:55:32.819Z,53.68
2019-02-21T14:58:01.091Z,48.08
2019-02-21T15:00:29.830Z,46.73
2019-02-21T15:02:58.177Z,45.00
2019-02-21T15:05:26.433Z,49.00
2019-02-21T15:07:54.718Z,49.57
2019-02-21T15:10:22.985Z,52.77
2019-02-21T15:12:51.277Z,55.53
2019-02-21T15:15:24.863Z,50.47
2019-02-21T15:17:53.129Z,47.90
2019-02-21T15:20:21.417Z,55.35
2019-02-21T15:22:49.687Z,53.42
2019-02-21T15:25:17.964Z,58.23
2019-02-21T15:27:46.376Z,58.75
2019-02-21T15:30:22.423Z,59.50
2019-02-21T15:32:50.685Z,60.03
2019-02-21T15:35:19.682Z,51.30
2019-02-21T15:37:48.017Z,53.37
2019-02-21T15:40:16.291Z,52.17
2019-02-21T15:42:44.564Z,51.03
2019-02-21T15:45:26.715Z,58.47
2019-02-21T15:47:54.972Z,49.50
2019-02-21T15:50:23.248Z,50.73
2019-02-21T15:52:56.063Z,48.47
2019-02-21T15:55:24.330Z,50.87
2019-02-21T15:58:03.235Z,55.23
2019-02-21T16:00:23.828Z,55.55
2019-02-21T16:02:52.152Z,46.50
2019-02-21T16:05:20.432Z,47.20
2019-02-21T16:07:48.692Z,44.33
2019-02-21T16:10:25.103Z,43.30
2019-02-21T16:12:53.487Z,38.03
2019-02-21T16:15:21.735Z,38.53
2019-02-21T16:17:50.871Z,32.30
2019-02-21T16:20:20.237Z,36.00
2019-02-21T16:22:48.552Z,34.43
2019-02-21T16:25:22.590Z,36.37
2019-02-21T16:27:50.872Z,33.17
2019-02-21T16:30:21.868Z,30.45
2019-02-21T16:32:49.435Z,26.60
2019-02-21T16:35:17.703Z,27.87
2019-02-21T16:37:45.967Z,25.12
2019-02-21T16:40:16.372Z,24.65
2019-02-21T16:42:44.666Z,26.15
2019-02-21T16:45:22.766Z,23.60
2019-02-21T16:47:51.114Z,27.10
2019-02-21T16:50:29.438Z,25.90
2019-02-21T16:52:49.386Z,24.70
2019-02-21T16:55:22.641Z,21.00
2019-02-21T16:57:50.920Z,18.87
2019-02-21T17:00:21.336Z,17.77
2019-02-21T17:02:49.619Z,19.43
2019-02-21T17:05:17.892Z,21.68
2019-02-21T17:07:46.171Z,20.00
2019-02-21T17:10:15.682Z,17.63
2019-02-21T17:12:43.948Z,17.93
2019-02-21T17:15:16.628Z,18.27
2019-02-21T17:17:44.916Z,18.83
2019-02-21T17:20:21.268Z,18.70
2019-02-21T17:22:49.553Z,16.10
2019-02-21T17:25:17.835Z,20.20
2019-02-21T17:27:46.439Z,17.77
2019-02-21T17:30:18.512Z,19.20
2019-02-21T17:32:46.758Z,18.90
2019-02-21T17:35:15.195Z,20.47
2019-02-21T17:37:43.460Z,16.33
2019-02-21T17:40:14.849Z,16.77
2019-02-21T17:42:43.111Z,18.90
2019-02-21T17:45:11.711Z,21.03
2019-02-21T17:47:39.998Z,25.00
2019-02-21T17:50:11.385Z,21.40
2019-02-21T17:52:39.643Z,25.25
2019-02-21T17:55:09.849Z,31.50
2019-02-21T17:57:38.116Z,27.37
2019-02-21T18:00:17.269Z,33.98
2019-02-21T18:02:45.416Z,33.87
2019-02-21T18:05:13.685Z,37.05
2019-02-21T18:07:41.951Z,31.82
2019-02-21T18:10:12.954Z,36.63
2019-02-21T18:12:41.219Z,40.30
2019-02-21T18:15:11.523Z,38.87
2019-02-21T18:17:39.801Z,40.90
2019-02-21T18:20:10.525Z,40.83
2019-02-21T18:22:38.850Z,44.97
2019-02-21T18:25:19.332Z,41.80
2019-02-21T18:27:47.608Z,39.45
2019-02-21T18:30:17.138Z,43.70
2019-02-21T18:32:45.419Z,45.10
2019-02-21T18:35:13.859Z,42.23
2019-02-21T18:37:47.444Z,43.33
2019-02-21T18:40:20.620Z,43.67
2019-02-21T18:42:47.913Z,42.67
2019-02-21T18:45:16.227Z,46.57
2019-02-21T18:47:44.471Z,49.70
2019-02-21T18:50:13.885Z,55.43
2019-02-21T18:52:42.187Z,52.53
2019-02-21T18:55:10.739Z,49.40
2019-02-21T18:57:39.005Z,55.93
2019-02-21T19:00:12.720Z,63.55
2019-02-21T19:02:41.064Z,57.00
2019-02-21T19:05:09.509Z,65.03
2019-02-21T19:07:37.789Z,60.43
2019-02-21T19:10:11.678Z,57.88
2019-02-21T19:12:39.955Z,67.22
2019-02-21T19:15:09.864Z,58.92
2019-02-21T19:17:38.125Z,59.43
2019-02-21T19:20:11.687Z,58.10
2019-02-21T19:22:40.038Z,59.37
2019-02-21T19:25:10.162Z,63.20
2019-02-21T19:27:38.419Z,51.45
2019-02-21T19:30:12.338Z,51.40
2019-02-21T19:32:40.609Z,61.87
2019-02-21T19:35:09.427Z,56.20
2019-02-21T19:37:37.712Z,62.37
2019-02-21T19:40:08.614Z,57.03
2019-02-21T19:42:36.963Z,57.90
2019-02-21T19:45:06.976Z,62.53
2019-02-21T19:47:35.635Z,55.37
2019-02-21T19:50:05.644Z,56.57
2019-02-21T19:52:33.917Z,62.37
2019-02-21T19:55:02.214Z,70.63
2019-02-21T19:57:30.512Z,60.63
2019-02-21T19:59:58.784Z,66.00
2019-02-21T20:02:27.125Z,70.83
2019-02-21T20:04:55.403Z,65.83
2019-02-21T20:07:23.698Z,74.50
2019-02-21T20:09:51.982Z,65.87
2019-02-21T20:12:20.253Z,76.33
2019-02-21T20:14:48.526Z,80.37
2019-02-21T20:17:16.811Z,79.05
2019-02-21T20:19:45.070Z,87.30
2019-02-21T20:22:13.356Z,73.17
2019-02-21T20:24:41.648Z,90.17
2019-02-21T20:27:09.923Z,83.07
2019-02-21T20:29:38.218Z,78.33
2019-02-21T20:32:06.528Z,74.90
2019-02-21T20:34:34.810Z,85.07
2019-02-21T20:37:03.084Z,90.27
2019-02-21T20:39:31.371Z,76.47
2019-02-21T20:41:59.655Z,81.80
2019-02-21T20:44:27.908Z,78.80
2019-02-21T20:46:56.180Z,93.07
2019-02-21T20:49:24.546Z,102.95
2019-02-21T20:51:52.845Z,96.35
2019-02-21T20:54:21.138Z,97.93
2019-02-21T20:56:49.419Z,104.95
2019-02-21T20:59:17.684Z,98.27
2019-02-21T21:01:45.952Z,95.57
2019-02-21T21:04:14.226Z,86.53
2019-02-21T21:06:42.532Z,106.57
2019-02-21T21:09:10.828Z,116.20
2019-02-21T21:11:39.101Z,120.30
2019-02-21T21:14:07.385Z,119.10
2019-02-21T21:16:35.689Z,135.53
2019-02-21T21:19:03.945Z,156.40
2019-02-21T21:21:32.233Z,164.87
2019-02-21T21:24:00.533Z,149.42
2019-02-21T21:26:28.810Z,134.03
2019-02-21T21:28:57.087Z,171.57
2019-02-21T21:31:25.400Z,171.97
2019-02-21T21:33:53.724Z,150.07
2019-02-21T21:36:21.987Z,158.00
2019-02-21T21:38:54.189Z,150.27
2019-02-21T21:41:20.255Z,180.13
2019-02-21T21:43:48.548Z,171.70
2019-02-21T21:46:16.836Z,178.90
2019-02-21T21:48:45.126Z,178.15
2019-02-21T21:51:13.409Z,210.60
2019-02-21T21:53:41.718Z,206.63
2019-02-21T21:56:09.997Z,161.83
2019-02-21T21:58:38.308Z,190.37
2019-02-21T22:01:06.658Z,205.13
2019-02-21T22:03:35.121Z,189.47
2019-02-21T22:06:03.405Z,170.03
2019-02-21T22:08:31.725Z,218.67
2019-02-21T22:11:00.043Z,199.13
2019-02-21T22:13:28.327Z,227.82
2019-02-21T22:15:56.752Z,200.83
2019-02-21T22:18:25.031Z,215.67
2019-02-21T22:20:53.317Z,174.50
2019-02-21T22:23:21.613Z,174.20
2019-02-21T22:25:49.880Z,180.07
2019-02-21T22:28:18.156Z,194.70
2019-02-21T22:30:46.583Z,200.32
2019-02-21T22:33:14.841Z,169.02
2019-02-21T22:35:43.118Z,173.90
2019-02-21T22:38:11.381Z,217.85
2019-02-21T22:40:39.667Z,169.75
2019-02-21T22:43:07.953Z,215.87
2019-02-21T22:45:36.230Z,202.63
2019-02-21T22:48:04.521Z,204.20
2019-02-21T22:50:32.822Z,217.37
2019-02-21T22:53:01.107Z,139.50
2019-02-21T22:55:29.400Z,193.70
2019-02-21T22:57:57.689Z,161.82
2019-02-21T23:00:36.635Z,142.67
2019-02-21T23:03:07.798Z,155.00
2019-02-21T23:06:00.297Z,142.28
2019-02-21T23:08:45.163Z,145.80
2019-02-21T23:11:13.714Z,136.85
2019-02-21T23:13:41.988Z,132.07
2019-02-21T23:16:10.253Z,143.93
2019-02-21T23:18:38.542Z,115.30
2019-02-21T23:21:06.793Z,111.90
2019-02-21T23:23:35.060Z,115.15
2019-02-21T23:26:03.330Z,135.57
2019-02-21T23:28:31.591Z,121.10
2019-02-21T23:30:59.880Z,123.17
2019-02-21T23:33:28.906Z,138.67
2019-02-21T23:35:57.203Z,117.97
2019-02-21T23:38:25.459Z,122.83
2019-02-21T23:40:53.727Z,117.47
2019-02-21T23:43:22.030Z,113.57
2019-02-21T23:45:50.341Z,106.50
2019-02-21T23:48:18.619Z,117.53
2019-02-21T23:50:46.893Z,117.03
2019-02-21T23:53:15.147Z,95.95
2019-02-21T23:55:43.412Z,96.60
2019-02-21T23:58:11.689Z,98.57
